LRSV/SCV METAR and TAF weather

Enter ICAO airport designator
Station Type Date Time Source
LRSV METAR 2020/06/03 21:00 UTC NOAA

LRSV 032100Z 22006KT CAVOK 11/09 Q1006 R16/19//95


Station Type Date Time Source
LRSV Decoded METAR 2020/06/03 21:00 UTC NOAA

Suceava / Salcea, Romania (LRSV) 47-39N 026-15E 351M
Jun 03, 2020 - 05:00 PM EDT / 2020.06.03 2100 UTC
Wind: from the SW (220 degrees) at 7 MPH (6 KT):0
Visibility: greater than 7 mile(s):0
Temperature: 51 F (11 C)
Dew Point: 48 F (9 C)
Relative Humidity: 87%
Pressure (altimeter): 29.71 in. Hg (1006 hPa)
ob: LRSV 032100Z 22006KT CAVOK 11/09 Q1006 R16/19//95
cycle: 21

Station Type Date Time Source
LRSV TAF 2014/07/19 18:48 UTC NOAA

TAF LRSV 191800Z 1918/2024 CNL

Example: see airport list